createdAt,value
2019-02-12T00:00:17.647Z,3.30
2019-02-12T00:01:22.180Z,2.65
2019-02-12T00:02:27.103Z,2.80
2019-02-12T00:03:31.578Z,2.47
2019-02-12T00:04:36.073Z,3.20
2019-02-12T00:05:40.554Z,2.87
2019-02-12T00:06:45.040Z,2.72
2019-02-12T00:07:49.529Z,3.27
2019-02-12T00:08:54.025Z,3.05
2019-02-12T00:09:58.466Z,2.93
2019-02-12T00:11:02.965Z,2.60
2019-02-12T00:12:07.647Z,3.00
2019-02-12T00:13:12.097Z,2.60
2019-02-12T00:14:16.647Z,2.62
2019-02-12T00:15:21.146Z,2.60
2019-02-12T00:16:25.688Z,2.70
2019-02-12T00:17:30.165Z,2.52
2019-02-12T00:18:34.674Z,2.60
2019-02-12T00:19:39.337Z,2.50
2019-02-12T00:20:43.932Z,2.60
2019-02-12T00:21:48.515Z,2.60
2019-02-12T00:22:53.537Z,2.90
2019-02-12T00:23:58.087Z,3.10
2019-02-12T00:25:02.563Z,2.70
2019-02-12T00:26:07.053Z,3.03
2019-02-12T00:27:11.511Z,2.67
2019-02-12T00:28:15.964Z,3.00
2019-02-12T00:29:20.473Z,2.97
2019-02-12T00:30:24.953Z,2.83
2019-02-12T00:31:29.729Z,3.02
2019-02-12T00:32:34.197Z,2.58
2019-02-12T00:33:38.868Z,3.10
2019-02-12T00:34:43.373Z,2.62
2019-02-12T00:35:47.844Z,2.75
2019-02-12T00:36:52.318Z,2.87
2019-02-12T00:37:57.270Z,2.98
2019-02-12T00:39:01.803Z,3.22
2019-02-12T00:40:08.856Z,3.10
2019-02-12T00:41:13.311Z,2.70
2019-02-12T00:42:17.779Z,2.40
2019-02-12T00:43:22.260Z,2.63
2019-02-12T00:44:26.736Z,2.50
2019-02-12T00:45:31.222Z,2.45
2019-02-12T00:46:35.684Z,2.37
2019-02-12T00:47:40.155Z,2.97
2019-02-12T00:48:44.643Z,2.80
2019-02-12T00:49:49.105Z,3.07
2019-02-12T00:50:53.591Z,2.97
2019-02-12T00:51:58.033Z,2.83
2019-02-12T00:53:02.563Z,2.97
2019-02-12T00:54:07.366Z,3.00
2019-02-12T00:55:11.921Z,3.10
2019-02-12T00:56:16.411Z,2.90
2019-02-12T00:57:20.875Z,2.90
2019-02-12T00:58:25.376Z,3.10
2019-02-12T00:59:29.841Z,3.00
2019-02-12T01:00:34.308Z,3.30
2019-02-12T01:01:38.803Z,3.58
2019-02-12T01:02:43.343Z,4.10
2019-02-12T01:03:47.795Z,3.98
2019-02-12T01:04:52.289Z,4.05
2019-02-12T01:05:56.752Z,4.05
2019-02-12T01:07:01.283Z,4.00
2019-02-12T01:08:05.762Z,3.98
2019-02-12T01:09:10.294Z,3.77
2019-02-12T01:10:14.783Z,4.22
2019-02-12T01:11:19.265Z,4.00
2019-02-12T01:12:23.736Z,3.80
2019-02-12T01:13:28.221Z,3.93
2019-02-12T01:14:32.701Z,3.80
2019-02-12T01:15:37.340Z,3.80
2019-02-12T01:16:41.871Z,4.40
2019-02-12T01:17:46.350Z,3.70
2019-02-12T01:18:51.116Z,3.98
2019-02-12T01:19:55.569Z,3.95
2019-02-12T01:21:00.080Z,3.83
2019-02-12T01:22:04.570Z,4.22
2019-02-12T01:23:09.021Z,3.60
2019-02-12T01:24:13.507Z,3.80
2019-02-12T01:25:17.954Z,4.10
2019-02-12T01:26:22.420Z,3.63
2019-02-12T01:27:26.905Z,4.63
2019-02-12T01:28:31.360Z,3.90
2019-02-12T01:29:35.825Z,4.57
2019-02-12T01:30:40.312Z,4.30
2019-02-12T01:31:44.889Z,3.97
2019-02-12T01:32:49.343Z,3.90
2019-02-12T01:33:53.806Z,4.53
2019-02-12T01:34:58.283Z,3.77
2019-02-12T01:36:02.742Z,4.17
2019-02-12T01:37:07.234Z,4.12
2019-02-12T01:38:11.746Z,4.17
2019-02-12T01:39:16.227Z,4.40
2019-02-12T01:40:20.730Z,4.15
2019-02-12T01:41:25.226Z,3.98
2019-02-12T01:42:29.743Z,3.90
2019-02-12T01:43:34.257Z,4.03
2019-02-12T01:44:38.727Z,4.03
2019-02-12T01:45:43.204Z,4.13
2019-02-12T01:46:47.657Z,3.93
2019-02-12T01:47:52.131Z,3.60
2019-02-12T01:48:56.672Z,4.28
2019-02-12T01:50:01.156Z,3.77
2019-02-12T01:51:05.706Z,3.92
2019-02-12T01:52:10.263Z,3.80
2019-02-12T01:53:14.766Z,4.17
2019-02-12T01:54:19.245Z,3.93
2019-02-12T01:55:23.710Z,4.10
2019-02-12T01:56:28.194Z,3.80
2019-02-12T01:57:32.723Z,3.80
2019-02-12T01:58:37.213Z,4.20
2019-02-12T01:59:41.663Z,3.60
2019-02-12T02:00:46.195Z,3.80
2019-02-12T02:01:50.690Z,3.57
2019-02-12T02:02:55.209Z,3.90
2019-02-12T02:03:59.713Z,3.85
2019-02-12T02:05:05.942Z,4.27
2019-02-12T02:06:10.393Z,4.00
2019-02-12T02:07:15.674Z,3.87
2019-02-12T02:08:20.152Z,4.30
2019-02-12T02:09:24.647Z,4.20
2019-02-12T02:10:29.167Z,3.90
2019-02-12T02:11:33.745Z,4.20
2019-02-12T02:12:38.283Z,4.55
2019-02-12T02:13:42.763Z,4.47
2019-02-12T02:14:47.262Z,4.05
2019-02-12T02:15:51.777Z,3.70
2019-02-12T02:16:56.239Z,3.97
2019-02-12T02:18:00.725Z,3.67
2019-02-12T02:19:05.243Z,4.47
2019-02-12T02:20:14.266Z,3.93
2019-02-12T02:21:18.783Z,3.90
2019-02-12T02:22:23.279Z,4.30
2019-02-12T02:23:27.735Z,4.30
2019-02-12T02:24:32.197Z,3.60
2019-02-12T02:25:36.672Z,4.30
2019-02-12T02:26:41.135Z,4.03
2019-02-12T02:27:45.580Z,3.63
2019-02-12T02:28:50.130Z,4.00
2019-02-12T02:29:54.606Z,4.07
2019-02-12T02:30:59.055Z,4.00
2019-02-12T02:32:03.531Z,4.20
2019-02-12T02:33:08.072Z,4.30
2019-02-12T02:34:12.632Z,4.03
2019-02-12T02:35:17.225Z,3.80
2019-02-12T02:36:21.701Z,4.43
2019-02-12T02:37:26.174Z,3.83
2019-02-12T02:38:30.693Z,3.62
2019-02-12T02:39:35.176Z,3.83
2019-02-12T02:40:39.676Z,4.17
2019-02-12T02:41:44.195Z,4.58
2019-02-12T02:42:48.678Z,3.83
2019-02-12T02:43:53.144Z,3.90
2019-02-12T02:44:57.620Z,4.00
2019-02-12T02:46:02.217Z,4.28
2019-02-12T02:47:06.678Z,4.42
2019-02-12T02:48:11.176Z,4.53
2019-02-12T02:49:15.663Z,4.25
2019-02-12T02:50:20.123Z,4.03
2019-02-12T02:51:24.705Z,4.20
2019-02-12T02:52:29.178Z,4.10
2019-02-12T02:53:33.637Z,4.50
2019-02-12T02:54:38.116Z,3.62
2019-02-12T02:55:42.598Z,3.80
2019-02-12T02:56:47.095Z,3.80
2019-02-12T02:57:51.533Z,3.67
2019-02-12T02:58:56.001Z,4.53
2019-02-12T03:00:00.527Z,3.77
2019-02-12T03:01:05.022Z,4.50
2019-02-12T03:02:09.672Z,4.47
2019-02-12T03:03:14.209Z,4.17
2019-02-12T03:04:18.716Z,3.77
2019-02-12T03:05:23.170Z,3.90
2019-02-12T03:06:27.650Z,4.25
2019-02-12T03:07:32.202Z,4.12
2019-02-12T03:08:36.656Z,4.40
2019-02-12T03:09:41.118Z,3.87
2019-02-12T03:10:45.587Z,3.67
2019-02-12T03:11:50.052Z,3.35
2019-02-12T03:12:54.532Z,3.93
2019-02-12T03:13:59.026Z,3.83
2019-02-12T03:15:03.660Z,3.65
2019-02-12T03:16:08.124Z,3.80
2019-02-12T03:17:12.653Z,4.35
2019-02-12T03:18:17.163Z,3.72
2019-02-12T03:19:21.633Z,3.58
2019-02-12T03:20:26.099Z,4.17
2019-02-12T03:21:30.575Z,3.87
2019-02-12T03:22:35.343Z,4.50
2019-02-12T03:23:39.810Z,4.60
2019-02-12T03:24:44.274Z,3.87
2019-02-12T03:25:48.752Z,3.93
2019-02-12T03:26:53.232Z,3.77
2019-02-12T03:27:57.704Z,3.90
2019-02-12T03:29:02.187Z,4.23
2019-02-12T03:30:09.675Z,3.93
2019-02-12T03:31:14.407Z,3.97
2019-02-12T03:32:18.900Z,4.45
2019-02-12T03:33:23.388Z,4.80
2019-02-12T03:34:27.935Z,3.93
2019-02-12T03:35:32.385Z,4.20
2019-02-12T03:36:36.898Z,4.42
2019-02-12T03:37:41.347Z,4.07
2019-02-12T03:38:45.817Z,4.80
2019-02-12T03:39:50.270Z,4.33
2019-02-12T03:40:54.728Z,4.23
2019-02-12T03:41:59.281Z,4.20
2019-02-12T03:43:03.928Z,4.13
2019-02-12T03:44:08.387Z,3.90
2019-02-12T03:45:13.713Z,3.72
2019-02-12T03:46:18.279Z,4.95
2019-02-12T03:47:22.753Z,4.78
2019-02-12T03:48:27.218Z,4.40
2019-02-12T03:49:31.670Z,4.30
2019-02-12T03:50:36.466Z,4.08
2019-02-12T03:51:40.941Z,4.87
2019-02-12T03:52:45.432Z,4.70
2019-02-12T03:53:49.905Z,4.50
2019-02-12T03:54:54.352Z,4.47
2019-02-12T03:55:58.819Z,4.20
2019-02-12T03:57:03.281Z,3.60
2019-02-12T03:58:07.998Z,3.93
2019-02-12T03:59:12.538Z,4.00
2019-02-12T04:00:17.024Z,4.27
2019-02-12T04:01:21.560Z,3.93
2019-02-12T04:02:26.041Z,4.40
2019-02-12T04:03:30.871Z,4.33
2019-02-12T04:04:35.458Z,4.17
2019-02-12T04:05:39.954Z,4.07
2019-02-12T04:06:44.477Z,4.08
2019-02-12T04:07:49.013Z,3.97
2019-02-12T04:08:53.480Z,4.23
2019-02-12T04:09:57.947Z,4.43
2019-02-12T04:11:02.410Z,3.55
2019-02-12T04:12:06.873Z,4.17
2019-02-12T04:13:11.357Z,4.70
2019-02-12T04:14:15.807Z,3.80
2019-02-12T04:15:20.295Z,4.15
2019-02-12T04:16:24.793Z,4.30
2019-02-12T04:17:29.233Z,4.12
2019-02-12T04:18:33.725Z,3.80
2019-02-12T04:19:38.256Z,4.08
2019-02-12T04:20:42.730Z,4.00
2019-02-12T04:21:47.211Z,3.75
2019-02-12T04:22:51.676Z,4.13
2019-02-12T04:23:56.142Z,3.97
2019-02-12T04:25:00.758Z,3.73
2019-02-12T04:26:05.199Z,3.83
2019-02-12T04:27:10.129Z,3.97
2019-02-12T04:28:15.958Z,3.77
2019-02-12T04:29:20.672Z,3.40
2019-02-12T04:30:25.166Z,3.60
2019-02-12T04:31:29.667Z,4.03
2019-02-12T04:32:34.139Z,4.12
2019-02-12T04:33:38.592Z,3.87
2019-02-12T04:34:43.054Z,3.92
2019-02-12T04:35:47.548Z,4.00
2019-02-12T04:36:52.007Z,3.80
2019-02-12T04:37:56.488Z,3.80
2019-02-12T04:39:01.009Z,3.52
2019-02-12T04:40:08.443Z,3.60
2019-02-12T04:41:12.953Z,4.10
2019-02-12T04:42:17.505Z,3.92
2019-02-12T04:43:21.968Z,3.37
2019-02-12T04:44:26.446Z,3.72
2019-02-12T04:45:30.983Z,4.22
2019-02-12T04:46:35.465Z,4.10
2019-02-12T04:47:39.939Z,3.55
2019-02-12T04:48:44.476Z,3.77
2019-02-12T04:49:48.939Z,4.03
2019-02-12T04:50:53.419Z,3.90
2019-02-12T04:51:57.901Z,3.87
2019-02-12T04:53:02.363Z,3.70
2019-02-12T04:54:06.853Z,3.57
2019-02-12T04:55:12.438Z,3.75
2019-02-12T04:56:16.918Z,3.70
2019-02-12T04:57:21.437Z,3.77
2019-02-12T04:58:25.906Z,3.63
2019-02-12T04:59:30.443Z,4.35
2019-02-12T05:00:34.940Z,3.73
2019-02-12T05:01:39.423Z,4.07
2019-02-12T05:02:43.965Z,3.70
2019-02-12T05:03:48.498Z,3.70
2019-02-12T05:04:52.973Z,3.70
2019-02-12T05:05:57.503Z,3.37
2019-02-12T05:07:02.039Z,3.60
2019-02-12T05:08:06.578Z,3.45
2019-02-12T05:09:16.293Z,3.10
2019-02-12T05:10:29.930Z,3.58
2019-02-12T05:11:34.406Z,3.83
2019-02-12T05:12:38.878Z,4.03
2019-02-12T05:13:43.372Z,3.92
2019-02-12T05:14:47.843Z,4.13
2019-02-12T05:15:52.315Z,3.70
2019-02-12T05:16:56.783Z,4.00
2019-02-12T05:18:01.261Z,3.47
2019-02-12T05:19:05.821Z,3.20
2019-02-12T05:20:14.319Z,3.47
2019-02-12T05:21:18.780Z,3.20
2019-02-12T05:22:23.239Z,3.60
2019-02-12T05:23:27.730Z,3.10
2019-02-12T05:24:32.182Z,2.85
2019-02-12T05:25:36.774Z,3.57
2019-02-12T05:26:41.311Z,3.62
2019-02-12T05:27:45.878Z,3.40
2019-02-12T05:28:50.448Z,3.10
2019-02-12T05:29:54.904Z,3.53
2019-02-12T05:30:59.434Z,3.90
2019-02-12T05:32:03.951Z,3.60
2019-02-12T05:33:08.427Z,3.15
2019-02-12T05:34:12.893Z,3.40
2019-02-12T05:35:17.451Z,3.22
2019-02-12T05:36:21.982Z,3.43
2019-02-12T05:37:26.456Z,3.60
2019-02-12T05:38:30.924Z,3.72
2019-02-12T05:39:35.391Z,3.85
2019-02-12T05:40:39.866Z,3.47
2019-02-12T05:41:44.347Z,3.87
2019-02-12T05:42:48.833Z,3.33
2019-02-12T05:43:53.310Z,3.45
2019-02-12T05:44:57.843Z,4.13
2019-02-12T05:46:02.325Z,4.30
2019-02-12T05:47:07.066Z,3.30
2019-02-12T05:48:11.671Z,3.60
2019-02-12T05:49:16.128Z,3.73
2019-02-12T05:50:20.590Z,3.65
2019-02-12T05:51:25.062Z,3.53
2019-02-12T05:52:29.531Z,3.90
2019-02-12T05:53:34.056Z,3.40
2019-02-12T05:54:38.531Z,3.80
2019-02-12T05:55:42.989Z,3.93
2019-02-12T05:56:47.454Z,3.60
2019-02-12T05:57:51.898Z,4.20
2019-02-12T05:58:56.378Z,4.20
2019-02-12T06:00:00.896Z,3.60
2019-02-12T06:01:05.373Z,4.03
2019-02-12T06:02:09.821Z,4.20
2019-02-12T06:03:14.279Z,3.60
2019-02-12T06:04:19.656Z,3.75
2019-02-12T06:05:26.432Z,3.47
2019-02-12T06:06:30.906Z,3.90
2019-02-12T06:07:35.444Z,3.58
2019-02-12T06:08:40.014Z,3.67
2019-02-12T06:09:44.493Z,3.52
2019-02-12T06:10:48.948Z,3.90
2019-02-12T06:11:53.426Z,3.37
2019-02-12T06:12:57.905Z,3.50
2019-02-12T06:14:02.333Z,3.10
2019-02-12T06:15:07.394Z,3.50
2019-02-12T06:16:11.853Z,3.15
2019-02-12T06:17:16.365Z,3.50
2019-02-12T06:18:20.949Z,3.13
2019-02-12T06:19:25.441Z,3.50
2019-02-12T06:20:29.932Z,3.10
2019-02-12T06:21:34.391Z,2.83
2019-02-12T06:22:38.845Z,2.83
2019-02-12T06:23:43.317Z,3.53
2019-02-12T06:24:47.819Z,3.27
2019-02-12T06:25:52.338Z,3.07
2019-02-12T06:26:58.425Z,3.43
2019-02-12T06:28:02.934Z,3.12
2019-02-12T06:29:07.391Z,4.20
2019-02-12T06:30:11.858Z,3.52
2019-02-12T06:31:16.431Z,3.07
2019-02-12T06:32:20.958Z,2.97
2019-02-12T06:33:25.475Z,3.17
2019-02-12T06:34:30.249Z,3.33
2019-02-12T06:35:34.718Z,3.30
2019-02-12T06:36:39.199Z,3.52
2019-02-12T06:37:43.664Z,3.30
2019-02-12T06:38:48.162Z,3.10
2019-02-12T06:39:52.709Z,2.92
2019-02-12T06:40:57.193Z,3.20
2019-02-12T06:42:01.753Z,2.98
2019-02-12T06:43:06.241Z,2.70
2019-02-12T06:44:10.710Z,3.00
2019-02-12T06:45:15.234Z,3.10
2019-02-12T06:46:19.736Z,3.20
2019-02-12T06:47:24.348Z,3.80
2019-02-12T06:48:28.823Z,3.47
2019-02-12T06:49:33.284Z,3.33
2019-02-12T06:50:37.781Z,3.33
2019-02-12T06:51:42.237Z,3.47
2019-02-12T06:52:46.736Z,3.37
2019-02-12T06:53:51.212Z,3.80
2019-02-12T06:54:56.136Z,3.33
2019-02-12T06:56:00.604Z,3.30
2019-02-12T06:57:05.100Z,3.25
2019-02-12T06:58:09.667Z,3.63
2019-02-12T06:59:14.142Z,3.33
2019-02-12T07:00:18.633Z,3.27
2019-02-12T07:01:23.112Z,3.27
2019-02-12T07:02:56.335Z,3.50
2019-02-12T07:04:00.823Z,3.47
2019-02-12T07:05:08.314Z,2.75
2019-02-12T07:06:32.468Z,3.30
2019-02-12T07:08:08.239Z,2.93
2019-02-12T07:09:27.089Z,2.80
2019-02-12T07:10:31.712Z,3.02
2019-02-12T07:11:58.929Z,2.83
2019-02-12T07:13:18.222Z,2.60
2019-02-12T07:14:37.412Z,2.77
2019-02-12T07:15:41.933Z,2.57
2019-02-12T07:17:09.158Z,3.37
2019-02-12T07:18:31.938Z,2.62
2019-02-12T07:19:42.353Z,2.40
2019-02-12T07:21:08.380Z,2.50
2019-02-12T07:22:32.376Z,2.60
2019-02-12T07:23:45.188Z,2.67
2019-02-12T07:25:04.833Z,2.80
2019-02-12T07:26:26.983Z,2.57
2019-02-12T07:27:46.447Z,3.12
2019-02-12T07:28:57.013Z,2.30
2019-02-12T07:30:15.929Z,2.63
2019-02-12T07:31:34.577Z,2.47
2019-02-12T07:32:44.303Z,2.90
2019-02-12T07:34:10.021Z,2.40
2019-02-12T07:35:35.602Z,2.30
2019-02-12T07:36:49.898Z,2.17
2019-02-12T07:38:16.862Z,2.90
2019-02-12T07:39:54.302Z,2.67
2019-02-12T07:41:23.972Z,2.30
2019-02-12T07:42:31.521Z,2.30
2019-02-12T07:43:41.669Z,2.10
2019-02-12T07:45:07.831Z,2.12
2019-02-12T07:46:33.016Z,2.20
2019-02-12T07:47:42.941Z,2.13
2019-02-12T07:48:53.345Z,2.45
2019-02-12T07:50:18.795Z,2.50
2019-02-12T07:51:26.352Z,2.20
2019-02-12T07:52:39.175Z,2.50
2019-02-12T07:54:01.387Z,2.58
2019-02-12T07:55:33.197Z,2.10
2019-02-12T07:56:55.916Z,2.00
2019-02-12T07:58:18.607Z,2.73
2019-02-12T07:59:41.318Z,2.45
2019-02-12T08:01:06.464Z,2.30
2019-02-12T08:02:33.869Z,1.95
2019-02-12T08:03:41.524Z,1.97
2019-02-12T08:05:23.734Z,1.83
2019-02-12T08:06:53.847Z,2.00
2019-02-12T08:08:30.091Z,2.00
2019-02-12T08:09:53.957Z,2.20
2019-02-12T08:11:13.255Z,2.55
2019-02-12T08:12:29.543Z,1.90
2019-02-12T08:13:51.898Z,2.50
2019-02-12T08:15:05.383Z,2.23
2019-02-12T08:16:15.587Z,1.98
2019-02-12T08:17:23.179Z,1.90
2019-02-12T08:18:30.736Z,2.00
2019-02-12T08:19:41.251Z,1.97
2019-02-12T08:20:54.587Z,2.25
2019-02-12T08:22:17.331Z,2.00
2019-02-12T08:23:27.760Z,2.20
2019-02-12T08:24:35.310Z,1.70
2019-02-12T08:26:02.249Z,1.73
2019-02-12T08:27:15.894Z,2.30
2019-02-12T08:28:43.165Z,2.33
2019-02-12T08:29:56.234Z,2.03
2019-02-12T08:31:12.978Z,1.98
2019-02-12T08:32:20.601Z,2.15
2019-02-12T08:33:46.343Z,2.50
2019-02-12T08:35:09.066Z,1.77
2019-02-12T08:36:21.232Z,1.95
2019-02-12T08:37:47.358Z,2.10
2019-02-12T08:39:10.496Z,2.20
2019-02-12T08:40:28.510Z,1.87
2019-02-12T08:41:58.418Z,1.57
2019-02-12T08:43:30.385Z,1.80
2019-02-12T08:45:00.908Z,2.60
2019-02-12T08:46:25.078Z,2.10
2019-02-12T08:47:57.109Z,1.90
2019-02-12T08:49:07.657Z,1.63
2019-02-12T08:50:27.002Z,2.17
2019-02-12T08:51:46.647Z,2.17
2019-02-12T08:53:00.408Z,2.55
2019-02-12T08:54:37.059Z,2.47
2019-02-12T08:56:02.840Z,1.90
2019-02-12T08:57:16.525Z,1.80
2019-02-12T08:58:26.896Z,2.03
2019-02-12T08:59:43.362Z,2.60
2019-02-12T09:01:03.224Z,1.80
2019-02-12T09:02:33.235Z,2.20
2019-02-12T09:04:05.342Z,2.37
2019-02-12T09:05:16.018Z,1.90
2019-02-12T09:06:42.927Z,2.60
2019-02-12T09:08:02.063Z,2.53
2019-02-12T09:09:29.241Z,2.35
2019-02-12T09:10:39.272Z,2.23
2019-02-12T09:12:13.611Z,2.00
2019-02-12T09:13:26.830Z,2.00
2019-02-12T09:14:37.045Z,2.87
2019-02-12T09:15:44.589Z,2.80
2019-02-12T09:17:07.313Z,3.03
2019-02-12T09:18:14.874Z,2.50
2019-02-12T09:19:24.987Z,2.15
2019-02-12T09:20:41.715Z,2.55
2019-02-12T09:22:05.773Z,2.60
2019-02-12T09:23:29.789Z,2.30
2019-02-12T09:24:52.195Z,2.60
2019-02-12T09:25:59.717Z,2.67
2019-02-12T09:27:25.447Z,2.73
2019-02-12T09:28:38.526Z,2.35
2019-02-12T09:30:01.057Z,2.50
2019-02-12T09:31:27.822Z,2.67
2019-02-12T09:32:59.031Z,2.33
2019-02-12T09:34:09.266Z,2.87
2019-02-12T09:35:25.581Z,2.17
2019-02-12T09:36:49.465Z,3.00
2019-02-12T09:38:11.710Z,2.63
2019-02-12T09:39:39.980Z,2.97
2019-02-12T09:40:59.292Z,2.30
2019-02-12T09:42:35.272Z,2.80
2019-02-12T09:44:05.662Z,3.10
2019-02-12T09:45:34.133Z,2.80
2019-02-12T09:46:59.799Z,2.55
2019-02-12T09:48:09.901Z,2.73
2019-02-12T09:49:36.955Z,2.47
2019-02-12T09:50:47.227Z,2.97
2019-02-12T09:52:06.897Z,2.60
2019-02-12T09:53:20.609Z,2.45
2019-02-12T09:54:37.282Z,2.67
2019-02-12T09:55:50.163Z,1.95
2019-02-12T09:57:03.282Z,2.33
2019-02-12T09:58:25.890Z,2.80
2019-02-12T09:59:33.460Z,2.30
2019-02-12T10:00:41.002Z,2.27
2019-02-12T10:02:00.521Z,2.40
2019-02-12T10:03:23.055Z,2.00
2019-02-12T10:04:41.995Z,2.42
2019-02-12T10:06:01.553Z,2.90
2019-02-12T10:07:36.386Z,2.10
2019-02-12T10:08:58.602Z,2.50
2019-02-12T10:10:21.159Z,2.33
2019-02-12T10:11:48.209Z,2.27
2019-02-12T10:13:22.845Z,2.63
2019-02-12T10:14:33.263Z,2.83
2019-02-12T10:15:56.045Z,2.55
2019-02-12T10:17:26.217Z,2.40
2019-02-12T10:18:45.706Z,2.33
2019-02-12T10:19:53.273Z,2.27
2019-02-12T10:21:23.691Z,2.22
2019-02-12T10:22:31.226Z,2.52
2019-02-12T10:23:38.767Z,2.67
2019-02-12T10:24:55.055Z,2.60
2019-02-12T10:26:02.787Z,2.80
2019-02-12T10:27:28.262Z,2.73
2019-02-12T10:28:35.926Z,2.60
2019-02-12T10:30:04.299Z,2.50
2019-02-12T10:31:11.680Z,2.97
2019-02-12T10:32:15.093Z,2.27
2019-02-12T10:33:19.650Z,2.90
2019-02-12T10:34:24.105Z,2.50
2019-02-12T10:35:28.584Z,2.97
2019-02-12T10:36:33.033Z,2.73
2019-02-12T10:37:37.514Z,2.70
2019-02-12T10:38:42.099Z,2.83
2019-02-12T10:39:46.559Z,2.60
2019-02-12T10:40:51.047Z,2.90
2019-02-12T10:41:55.542Z,2.83
2019-02-12T10:43:00.046Z,2.90
2019-02-12T10:44:04.920Z,2.60
2019-02-12T10:45:09.718Z,2.67
2019-02-12T10:46:14.241Z,3.10
2019-02-12T10:47:18.715Z,2.57
2019-02-12T10:48:23.181Z,2.80
2019-02-12T10:49:27.668Z,2.83
2019-02-12T10:50:32.128Z,2.12
2019-02-12T10:51:36.894Z,2.72
2019-02-12T10:52:41.371Z,2.65
2019-02-12T10:53:45.840Z,2.92
2019-02-12T10:54:50.306Z,2.50
2019-02-12T10:55:54.783Z,2.83
2019-02-12T10:56:59.253Z,2.83
2019-02-12T10:58:03.814Z,2.55
2019-02-12T10:59:08.293Z,2.50
2019-02-12T11:00:14.083Z,2.58
2019-02-12T11:01:18.753Z,2.40
2019-02-12T11:02:23.289Z,3.00
2019-02-12T11:03:27.782Z,2.90
2019-02-12T11:04:32.331Z,2.90
2019-02-12T11:05:36.821Z,2.70
2019-02-12T11:06:41.351Z,2.80
2019-02-12T11:07:45.876Z,3.37
2019-02-12T11:08:50.357Z,3.00
2019-02-12T11:09:54.874Z,2.95
2019-02-12T11:10:59.408Z,2.80
2019-02-12T11:12:03.878Z,2.92
2019-02-12T11:13:08.325Z,2.70
2019-02-12T11:14:12.797Z,3.27
2019-02-12T11:15:17.247Z,2.72
2019-02-12T11:16:21.750Z,2.87
2019-02-12T11:17:26.302Z,2.87
2019-02-12T11:18:30.809Z,2.73
2019-02-12T11:19:35.272Z,2.80
2019-02-12T11:20:39.731Z,3.13
2019-02-12T11:21:44.242Z,2.60
2019-02-12T11:22:48.814Z,2.47
2019-02-12T11:23:53.290Z,2.65
2019-02-12T11:24:57.742Z,2.70
2019-02-12T11:26:02.261Z,2.50
2019-02-12T11:27:06.734Z,2.45
2019-02-12T11:28:11.204Z,2.33
2019-02-12T11:29:15.711Z,2.55
2019-02-12T11:30:20.215Z,2.60
2019-02-12T11:31:24.732Z,2.40
2019-02-12T11:32:29.203Z,2.60
2019-02-12T11:33:33.726Z,2.40
2019-02-12T11:34:38.175Z,1.60
2019-02-12T11:35:42.663Z,1.83
2019-02-12T11:36:47.225Z,2.00
2019-02-12T11:37:51.686Z,2.00
2019-02-12T11:38:56.159Z,2.02
2019-02-12T11:40:00.648Z,2.20
2019-02-12T11:41:05.177Z,1.75
2019-02-12T11:42:09.703Z,1.80
2019-02-12T11:43:14.258Z,1.70
2019-02-12T11:44:18.726Z,2.13
2019-02-12T11:45:23.197Z,1.73
2019-02-12T11:46:27.646Z,1.70
2019-02-12T11:47:32.102Z,1.80
2019-02-12T11:48:36.643Z,2.20
2019-02-12T11:49:41.105Z,2.10
2019-02-12T11:50:45.601Z,1.92
2019-02-12T11:51:50.141Z,1.98
2019-02-12T11:52:54.628Z,1.70
2019-02-12T11:53:59.114Z,1.80
2019-02-12T11:55:04.141Z,2.60
2019-02-12T11:56:08.749Z,1.80
2019-02-12T11:57:13.214Z,1.90
2019-02-12T11:58:17.675Z,2.40
2019-02-12T11:59:22.200Z,2.10
2019-02-12T12:00:28.351Z,2.25
2019-02-12T12:01:33.015Z,2.00
2019-02-12T12:02:42.110Z,1.90
2019-02-12T12:03:43.649Z,2.10
2019-02-12T12:04:48.123Z,2.10
2019-02-12T12:05:52.611Z,1.67
2019-02-12T12:06:57.082Z,1.90
2019-02-12T12:08:01.544Z,1.73
2019-02-12T12:09:06.453Z,1.90
2019-02-12T12:10:11.902Z,1.97
2019-02-12T12:11:16.360Z,1.80
2019-02-12T12:12:20.839Z,1.97
2019-02-12T12:13:25.367Z,1.70
2019-02-12T12:14:29.841Z,1.70
2019-02-12T12:15:34.331Z,1.57
2019-02-12T12:16:38.793Z,1.67
2019-02-12T12:17:43.431Z,1.93
2019-02-12T12:18:47.902Z,1.60
2019-02-12T12:19:52.345Z,1.60
2019-02-12T12:20:56.823Z,2.30
2019-02-12T12:22:01.298Z,2.00
2019-02-12T12:23:05.916Z,1.63
2019-02-12T12:24:10.440Z,1.52
2019-02-12T12:25:14.986Z,1.47
2019-02-12T12:26:19.595Z,1.13
2019-02-12T12:27:24.155Z,1.33
2019-02-12T12:28:28.765Z,1.60
2019-02-12T12:29:33.237Z,1.60
2019-02-12T12:30:39.377Z,1.60
2019-02-12T12:31:44.003Z,1.65
2019-02-12T12:32:48.497Z,1.45
2019-02-12T12:33:53.178Z,1.57
2019-02-12T12:34:59.164Z,1.67
2019-02-12T12:36:03.915Z,1.55
2019-02-12T12:37:08.525Z,1.82
2019-02-12T12:38:13.072Z,1.30
2019-02-12T12:39:17.665Z,1.57
2019-02-12T12:40:22.162Z,1.20
2019-02-12T12:41:26.692Z,1.53
2019-02-12T12:42:31.510Z,1.40
2019-02-12T12:43:35.991Z,1.63
2019-02-12T12:44:40.480Z,1.17
2019-02-12T12:45:44.948Z,1.47
2019-02-12T12:46:49.412Z,1.70
2019-02-12T12:47:53.905Z,1.33
2019-02-12T12:48:59.278Z,1.47
2019-02-12T12:50:06.265Z,1.50
2019-02-12T12:51:10.729Z,1.67
2019-02-12T12:52:15.195Z,1.60
2019-02-12T12:53:19.848Z,1.50
2019-02-12T12:54:24.481Z,1.40
2019-02-12T12:55:29.968Z,1.50
2019-02-12T12:56:34.507Z,1.50
2019-02-12T12:57:41.802Z,1.50
2019-02-12T12:58:45.206Z,1.45
2019-02-12T12:59:49.663Z,1.40
2019-02-12T13:00:54.296Z,1.70
2019-02-12T13:01:58.818Z,1.50
2019-02-12T13:03:03.297Z,1.62
2019-02-12T13:04:07.793Z,1.65
2019-02-12T13:05:12.485Z,1.60
2019-02-12T13:06:17.156Z,1.62
2019-02-12T13:07:21.611Z,1.67
2019-02-12T13:08:26.101Z,1.72
2019-02-12T13:09:30.628Z,1.77
2019-02-12T13:10:35.185Z,1.47
2019-02-12T13:11:39.647Z,1.95
2019-02-12T13:12:44.117Z,1.62
2019-02-12T13:13:48.582Z,1.70
2019-02-12T13:14:53.037Z,1.30
2019-02-12T13:15:57.539Z,1.87
2019-02-12T13:17:02.279Z,1.50
2019-02-12T13:18:06.748Z,1.70
2019-02-12T13:19:11.271Z,1.70
2019-02-12T13:20:19.934Z,1.80
2019-02-12T13:21:24.679Z,2.00
2019-02-12T13:22:29.167Z,1.55
2019-02-12T13:23:33.812Z,2.17
2019-02-12T13:24:38.271Z,1.80
2019-02-12T13:25:42.755Z,1.60
2019-02-12T13:26:47.243Z,1.80
2019-02-12T13:27:51.806Z,1.50
2019-02-12T13:28:56.292Z,1.77
2019-02-12T13:30:00.773Z,1.62
2019-02-12T13:31:05.285Z,1.67
2019-02-12T13:32:09.812Z,2.10
2019-02-12T13:33:14.287Z,1.90
2019-02-12T13:34:18.755Z,1.90
2019-02-12T13:35:23.237Z,1.75
2019-02-12T13:36:27.681Z,1.80
2019-02-12T13:37:32.375Z,1.60
2019-02-12T13:38:38.057Z,2.02
2019-02-12T13:39:42.639Z,1.93
2019-02-12T13:40:47.096Z,1.90
2019-02-12T13:41:51.565Z,1.63
2019-02-12T13:42:56.051Z,1.83
2019-02-12T13:44:00.515Z,1.73
2019-02-12T13:45:07.916Z,1.52
2019-02-12T13:46:12.472Z,1.37
2019-02-12T13:47:16.942Z,1.40
2019-02-12T13:48:21.410Z,1.43
2019-02-12T13:49:25.915Z,1.57
2019-02-12T13:50:30.349Z,1.50
2019-02-12T13:51:34.815Z,1.60
2019-02-12T13:52:39.331Z,1.82
2019-02-12T13:53:43.827Z,1.60
2019-02-12T13:54:48.273Z,1.40
2019-02-12T13:55:52.779Z,1.40
2019-02-12T13:56:57.224Z,1.40
2019-02-12T13:58:01.677Z,1.55
2019-02-12T13:59:06.145Z,1.50
2019-02-12T14:00:13.636Z,1.20
2019-02-12T14:01:18.102Z,1.40
2019-02-12T14:02:22.595Z,1.30
2019-02-12T14:03:27.084Z,1.57
2019-02-12T14:04:31.617Z,1.32
2019-02-12T14:05:36.124Z,1.40
2019-02-12T14:06:40.652Z,1.40
2019-02-12T14:07:45.326Z,1.37
2019-02-12T14:08:50.017Z,1.83
2019-02-12T14:09:54.493Z,2.00
2019-02-12T14:10:58.942Z,1.40
2019-02-12T14:12:03.413Z,1.80
2019-02-12T14:13:07.885Z,1.80
2019-02-12T14:14:12.461Z,1.60
2019-02-12T14:15:16.971Z,1.40
2019-02-12T14:16:21.431Z,1.70
2019-02-12T14:17:25.895Z,1.73
2019-02-12T14:18:30.413Z,1.90
2019-02-12T14:19:34.888Z,1.57
2019-02-12T14:20:39.359Z,1.50
2019-02-12T14:21:44.069Z,1.60
2019-02-12T14:22:48.558Z,1.60
2019-02-12T14:23:53.069Z,1.50
2019-02-12T14:24:57.584Z,1.50
2019-02-12T14:26:02.105Z,1.80
2019-02-12T14:27:06.622Z,1.50
2019-02-12T14:28:11.087Z,1.73
2019-02-12T14:29:15.741Z,2.03
2019-02-12T14:30:22.341Z,1.67
2019-02-12T14:31:26.883Z,1.73
2019-02-12T14:32:31.438Z,1.90
2019-02-12T14:33:35.926Z,1.90
2019-02-12T14:34:40.520Z,1.70
2019-02-12T14:35:44.992Z,1.40
2019-02-12T14:36:49.588Z,1.70
2019-02-12T14:37:54.078Z,2.02
2019-02-12T14:38:58.526Z,1.90
2019-02-12T14:40:03.077Z,1.72
2019-02-12T14:41:07.615Z,1.70
2019-02-12T14:42:12.301Z,2.35
2019-02-12T14:43:16.805Z,1.60
2019-02-12T14:44:21.273Z,1.80
2019-02-12T14:45:25.728Z,1.60
2019-02-12T14:46:30.211Z,1.83
2019-02-12T14:47:34.665Z,1.87
2019-02-12T14:48:39.155Z,1.97
2019-02-12T14:49:43.663Z,2.23
2019-02-12T14:50:48.124Z,1.77
2019-02-12T14:51:52.590Z,1.77
2019-02-12T14:52:57.378Z,1.90
2019-02-12T14:54:01.886Z,2.30
2019-02-12T14:55:06.651Z,1.70
2019-02-12T14:56:11.654Z,1.80
2019-02-12T14:57:16.310Z,1.67
2019-02-12T14:58:20.825Z,1.83
2019-02-12T14:59:25.416Z,2.00